sensor_id;sensor_type;location;lat;lon;timestamp;temperature;humidity
7598;DHT22;3840;59.32098800;18.06423600;2024-02-14T00:02:11;-2.90;99.90
7598;DHT22;3840;59.32098800;18.06423600;2024-02-14T00:04:37;-3.00;99.90
7598;DHT22;3840;59.32098800;18.06423600;2024-02-14T00:07:04;-3.00;99.90
7598;DHT22;3840;59.32098800;18.06423600;2024-02-14T00:09:30;-3.10;99.90
7598;DHT22;3840;59.32098800;18.06423600;2024-02-14T00:11:56;-3.10;99.90
7598;DHT22;3840;59.32098800;18.06423600;2024-02-14T00:14:22;-3.20;99.90
7598;DHT22;3840;59.32098800;18.06423600;2024-02-14T00:16:47;-3.20;99.90
7598;DHT22;3840;59.32098800;18.06423600;2024-02-14T00:19:13;-3.20;99.90
7598;DHT22;3840;59.32098800;18.06423600;2024-02-14T00:21:39;-3.20;99.90
7598;DHT22;3840;59.32098800;18.06423600;2024-02-14T00:24:05;-2.70;99.90
7598;DHT22;3840;59.32098800;18.06423600;2024-02-14T00:26:31;-3.20;99.90
7598;DHT22;3840;59.32098800;18.06423600;2024-02-14T00:28:57;-3.20;99.90
7598;DHT22;3840;59.32098800;18.06423600;2024-02-14T00:31:22;-3.10;99.90
7598;DHT22;3840;59.32098800;18.06423600;2024-02-14T00:33:48;-3.20;99.90
7598;DHT22;3840;59.32098800;18.06423600;2024-02-14T00:36:14;-3.30;99.90
7598;DHT22;3840;59.32098800;18.06423600;2024-02-14T00:38:40;-3.40;99.90
7598;DHT22;3840;59.32098800;18.06423600;2024-02-14T00:41:06;-3.60;99.90
7598;DHT22;3840;59.32098800;18.06423600;2024-02-14T00:43:31;-3.70;99.90
7598;DHT22;3840;59.32098800;18.06423600;2024-02-14T00:45:57;-3.70;99.90
7598;DHT22;3840;59.32098800;18.06423600;2024-02-14T00:48:23;-3.60;99.90
7598;DHT22;3840;59.32098800;18.06423600;2024-02-14T00:50:49;-3.60;99.90
7598;DHT22;3840;59.32098800;18.06423600;2024-02-14T00:53:15;-2.70;99.90
7598;DHT22;3840;59.32098800;18.06423600;2024-02-14T00:55:41;-3.80;99.90
7598;DHT22;3840;59.32098800;18.06423600;2024-02-14T00:58:06;-3.80;99.90
7598;DHT22;3840;59.32098800;18.06423600;2024-02-14T01:00:32;-3.80;99.90
7598;DHT22;3840;59.32098800;18.06423600;2024-02-14T01:02:58;-3.80;99.90
7598;DHT22;3840;59.32098800;18.06423600;2024-02-14T01:05:24;-3.70;99.90
7598;DHT22;3840;59.32098800;18.06423600;2024-02-14T01:07:50;-3.80;99.90
7598;DHT22;3840;59.32098800;18.06423600;2024-02-14T01:10:15;-3.80;99.90
7598;DHT22;3840;59.32098800;18.06423600;2024-02-14T01:12:41;-3.80;99.90
7598;DHT22;3840;59.32098800;18.06423600;2024-02-14T01:15:07;-3.50;99.90
7598;DHT22;3840;59.32098800;18.06423600;2024-02-14T01:17:33;-3.70;99.90
7598;DHT22;3840;59.32098800;18.06423600;2024-02-14T01:20:01;-2.50;99.90
7598;DHT22;3840;59.32098800;18.06423600;2024-02-14T01:22:28;-3.80;99.90
7598;DHT22;3840;59.32098800;18.06423600;2024-02-14T01:24:54;-3.80;99.90
7598;DHT22;3840;59.32098800;18.06423600;2024-02-14T01:27:20;-3.40;99.90
7598;DHT22;3840;59.32098800;18.06423600;2024-02-14T01:29:48;-3.70;99.90
7598;DHT22;3840;59.32098800;18.06423600;2024-02-14T01:32:14;-2.90;99.90
7598;DHT22;3840;59.32098800;18.06423600;2024-02-14T01:34:39;-3.70;99.90
7598;DHT22;3840;59.32098800;18.06423600;2024-02-14T01:37:05;-3.60;99.90
7598;DHT22;3840;59.32098800;18.06423600;2024-02-14T01:39:31;-3.60;99.90
7598;DHT22;3840;59.32098800;18.06423600;2024-02-14T01:41:57;-3.60;99.90
7598;DHT22;3840;59.32098800;18.06423600;2024-02-14T01:44:23;-3.70;99.90
7598;DHT22;3840;59.32098800;18.06423600;2024-02-14T01:46:48;-3.50;99.90
7598;DHT22;3840;59.32098800;18.06423600;2024-02-14T01:49:15;-3.70;99.90
7598;DHT22;3840;59.32098800;18.06423600;2024-02-14T01:51:43;-3.70;99.90
7598;DHT22;3840;59.32098800;18.06423600;2024-02-14T01:54:11;-3.70;99.90
7598;DHT22;3840;59.32098800;18.06423600;2024-02-14T01:56:37;-3.80;99.90
7598;DHT22;3840;59.32098800;18.06423600;2024-02-14T01:59:03;-3.80;99.90
7598;DHT22;3840;59.32098800;18.06423600;2024-02-14T02:01:31;-3.80;99.90
7598;DHT22;3840;59.32098800;18.06423600;2024-02-14T02:03:57;-3.80;99.90
7598;DHT22;3840;59.32098800;18.06423600;2024-02-14T02:06:23;-3.80;99.90
7598;DHT22;3840;59.32098800;18.06423600;2024-02-14T02:08:48;-3.70;99.90
7598;DHT22;3840;59.32098800;18.06423600;2024-02-14T02:11:15;-3.80;99.90
7598;DHT22;3840;59.32098800;18.06423600;2024-02-14T02:13:40;-3.80;99.90
7598;DHT22;3840;59.32098800;18.06423600;2024-02-14T02:16:06;-3.80;99.90
7598;DHT22;3840;59.32098800;18.06423600;2024-02-14T02:18:32;-3.70;99.90
7598;DHT22;3840;59.32098800;18.06423600;2024-02-14T02:20:58;-3.70;99.90
7598;DHT22;3840;59.32098800;18.06423600;2024-02-14T02:23:23;-3.60;99.90
7598;DHT22;3840;59.32098800;18.06423600;2024-02-14T02:25:49;-3.70;99.90
7598;DHT22;3840;59.32098800;18.06423600;2024-02-14T02:28:16;-3.60;99.90
7598;DHT22;3840;59.32098800;18.06423600;2024-02-14T02:30:42;-3.60;99.90
7598;DHT22;3840;59.32098800;18.06423600;2024-02-14T02:33:08;-3.50;99.90
7598;DHT22;3840;59.32098800;18.06423600;2024-02-14T02:35:34;-3.70;99.90
7598;DHT22;3840;59.32098800;18.06423600;2024-02-14T02:38:00;-3.60;99.90
7598;DHT22;3840;59.32098800;18.06423600;2024-02-14T02:40:26;-3.50;99.90
7598;DHT22;3840;59.32098800;18.06423600;2024-02-14T02:42:53;-3.50;99.90
7598;DHT22;3840;59.32098800;18.06423600;2024-02-14T02:45:19;-3.40;99.90
7598;DHT22;3840;59.32098800;18.06423600;2024-02-14T02:47:45;-3.40;99.90
7598;DHT22;3840;59.32098800;18.06423600;2024-02-14T02:50:13;-3.20;99.90
7598;DHT22;3840;59.32098800;18.06423600;2024-02-14T02:52:39;-3.40;99.90
7598;DHT22;3840;59.32098800;18.06423600;2024-02-14T02:55:06;-3.40;99.90
7598;DHT22;3840;59.32098800;18.06423600;2024-02-14T02:57:32;-3.30;99.90
7598;DHT22;3840;59.32098800;18.06423600;2024-02-14T02:59:59;-3.40;99.90
7598;DHT22;3840;59.32098800;18.06423600;2024-02-14T03:02:24;-3.40;99.90
7598;DHT22;3840;59.32098800;18.06423600;2024-02-14T03:04:51;-3.20;99.90
7598;DHT22;3840;59.32098800;18.06423600;2024-02-14T03:07:21;-3.20;99.90
7598;DHT22;3840;59.32098800;18.06423600;2024-02-14T03:09:48;-3.10;99.90
7598;DHT22;3840;59.32098800;18.06423600;2024-02-14T03:12:14;-3.00;99.90
7598;DHT22;3840;59.32098800;18.06423600;2024-02-14T03:14:41;-3.10;99.90
7598;DHT22;3840;59.32098800;18.06423600;2024-02-14T03:17:09;-2.80;99.90
7598;DHT22;3840;59.32098800;18.06423600;2024-02-14T03:19:35;-2.90;99.90
7598;DHT22;3840;59.32098800;18.06423600;2024-02-14T03:22:04;-2.90;99.90
7598;DHT22;3840;59.32098800;18.06423600;2024-02-14T03:24:31;-2.90;99.90
7598;DHT22;3840;59.32098800;18.06423600;2024-02-14T03:26:57;-2.90;99.90
7598;DHT22;3840;59.32098800;18.06423600;2024-02-14T03:29:22;-2.80;99.90
7598;DHT22;3840;59.32098800;18.06423600;2024-02-14T03:31:48;-2.70;99.90
7598;DHT22;3840;59.32098800;18.06423600;2024-02-14T03:34:14;-2.80;99.90
7598;DHT22;3840;59.32098800;18.06423600;2024-02-14T03:36:40;-2.80;99.90
7598;DHT22;3840;59.32098800;18.06423600;2024-02-14T03:39:06;-2.30;99.90
7598;DHT22;3840;59.32098800;18.06423600;2024-02-14T03:41:32;-2.60;99.90
7598;DHT22;3840;59.32098800;18.06423600;2024-02-14T03:43:58;-2.50;99.90
7598;DHT22;3840;59.32098800;18.06423600;2024-02-14T03:46:27;-2.60;99.90
7598;DHT22;3840;59.32098800;18.06423600;2024-02-14T03:48:56;-2.60;99.90
7598;DHT22;3840;59.32098800;18.06423600;2024-02-14T03:51:24;-2.60;99.90
7598;DHT22;3840;59.32098800;18.06423600;2024-02-14T03:53:50;-2.60;99.90
7598;DHT22;3840;59.32098800;18.06423600;2024-02-14T03:56:16;-2.60;99.90
7598;DHT22;3840;59.32098800;18.06423600;2024-02-14T03:58:42;-2.40;99.90
7598;DHT22;3840;59.32098800;18.06423600;2024-02-14T04:01:08;-2.60;99.90
7598;DHT22;3840;59.32098800;18.06423600;2024-02-14T04:03:34;-2.60;99.90
7598;DHT22;3840;59.32098800;18.06423600;2024-02-14T04:06:00;-2.50;99.90
7598;DHT22;3840;59.32098800;18.06423600;2024-02-14T04:08:26;-1.60;99.90
7598;DHT22;3840;59.32098800;18.06423600;2024-02-14T04:10:51;-2.30;99.90
7598;DHT22;3840;59.32098800;18.06423600;2024-02-14T04:13:19;-2.30;99.90
7598;DHT22;3840;59.32098800;18.06423600;2024-02-14T04:15:46;-2.20;99.90
7598;DHT22;3840;59.32098800;18.06423600;2024-02-14T04:18:15;-2.00;99.90
7598;DHT22;3840;59.32098800;18.06423600;2024-02-14T04:20:43;-2.20;99.90
7598;DHT22;3840;59.32098800;18.06423600;2024-02-14T04:23:09;-2.20;99.90
7598;DHT22;3840;59.32098800;18.06423600;2024-02-14T04:25:35;-2.20;99.90
7598;DHT22;3840;59.32098800;18.06423600;2024-02-14T04:28:03;-2.20;99.90
7598;DHT22;3840;59.32098800;18.06423600;2024-02-14T04:30:28;-2.20;99.90
7598;DHT22;3840;59.32098800;18.06423600;2024-02-14T04:32:55;-2.10;99.90
7598;DHT22;3840;59.32098800;18.06423600;2024-02-14T04:35:20;-2.20;99.90
7598;DHT22;3840;59.32098800;18.06423600;2024-02-14T04:37:46;-2.20;99.90
7598;DHT22;3840;59.32098800;18.06423600;2024-02-14T04:40:14;-2.20;99.90
7598;DHT22;3840;59.32098800;18.06423600;2024-02-14T04:42:41;-2.20;99.90
7598;DHT22;3840;59.32098800;18.06423600;2024-02-14T04:45:07;-2.20;99.90
7598;DHT22;3840;59.32098800;18.06423600;2024-02-14T04:47:33;-2.20;99.90
7598;DHT22;3840;59.32098800;18.06423600;2024-02-14T04:49:59;-2.20;99.90
7598;DHT22;3840;59.32098800;18.06423600;2024-02-14T04:52:27;-2.20;99.90
7598;DHT22;3840;59.32098800;18.06423600;2024-02-14T04:54:52;-2.20;99.90
7598;DHT22;3840;59.32098800;18.06423600;2024-02-14T04:57:18;-1.90;99.90
7598;DHT22;3840;59.32098800;18.06423600;2024-02-14T04:59:46;-2.10;99.90
7598;DHT22;3840;59.32098800;18.06423600;2024-02-14T05:02:12;-2.10;99.90
7598;DHT22;3840;59.32098800;18.06423600;2024-02-14T05:04:38;-2.00;99.90
7598;DHT22;3840;59.32098800;18.06423600;2024-02-14T05:07:04;-2.00;99.90
7598;DHT22;3840;59.32098800;18.06423600;2024-02-14T05:09:30;-2.20;99.90
7598;DHT22;3840;59.32098800;18.06423600;2024-02-14T05:11:56;-1.30;99.90
7598;DHT22;3840;59.32098800;18.06423600;2024-02-14T05:14:22;-2.20;99.90
7598;DHT22;3840;59.32098800;18.06423600;2024-02-14T05:16:48;-2.10;99.90
7598;DHT22;3840;59.32098800;18.06423600;2024-02-14T05:19:13;-2.00;99.90
7598;DHT22;3840;59.32098800;18.06423600;2024-02-14T05:21:39;-2.10;99.90
7598;DHT22;3840;59.32098800;18.06423600;2024-02-14T05:24:05;-2.00;99.90
7598;DHT22;3840;59.32098800;18.06423600;2024-02-14T05:26:32;-2.00;99.90
7598;DHT22;3840;59.32098800;18.06423600;2024-02-14T05:28:57;-1.90;99.90
7598;DHT22;3840;59.32098800;18.06423600;2024-02-14T05:31:24;-0.70;99.90
7598;DHT22;3840;59.32098800;18.06423600;2024-02-14T05:33:50;-1.80;99.90
7598;DHT22;3840;59.32098800;18.06423600;2024-02-14T05:36:16;-1.80;99.90
7598;DHT22;3840;59.32098800;18.06423600;2024-02-14T05:38:42;-1.60;99.90
7598;DHT22;3840;59.32098800;18.06423600;2024-02-14T05:41:08;-1.80;99.90
7598;DHT22;3840;59.32098800;18.06423600;2024-02-14T05:43:34;-1.80;99.90
7598;DHT22;3840;59.32098800;18.06423600;2024-02-14T05:46:01;-1.70;99.90
7598;DHT22;3840;59.32098800;18.06423600;2024-02-14T05:48:27;-1.70;99.90
7598;DHT22;3840;59.32098800;18.06423600;2024-02-14T05:50:52;-1.70;99.90
7598;DHT22;3840;59.32098800;18.06423600;2024-02-14T05:53:18;-1.60;99.90
7598;DHT22;3840;59.32098800;18.06423600;2024-02-14T05:55:44;-0.80;99.90
7598;DHT22;3840;59.32098800;18.06423600;2024-02-14T05:58:09;-1.70;99.90
7598;DHT22;3840;59.32098800;18.06423600;2024-02-14T06:00:35;-0.50;99.90
7598;DHT22;3840;59.32098800;18.06423600;2024-02-14T06:03:01;-1.60;99.90
7598;DHT22;3840;59.32098800;18.06423600;2024-02-14T06:05:27;-1.50;99.90
7598;DHT22;3840;59.32098800;18.06423600;2024-02-14T06:07:53;-1.50;99.90
7598;DHT22;3840;59.32098800;18.06423600;2024-02-14T06:10:19;-1.50;99.90
7598;DHT22;3840;59.32098800;18.06423600;2024-02-14T06:12:45;-1.50;99.90
7598;DHT22;3840;59.32098800;18.06423600;2024-02-14T06:15:13;-1.50;99.90
7598;DHT22;3840;59.32098800;18.06423600;2024-02-14T06:17:39;-1.60;99.90
7598;DHT22;3840;59.32098800;18.06423600;2024-02-14T06:20:05;-1.50;99.90
7598;DHT22;3840;59.32098800;18.06423600;2024-02-14T06:22:33;-1.50;99.90
7598;DHT22;3840;59.32098800;18.06423600;2024-02-14T06:25:02;-1.50;99.90
7598;DHT22;3840;59.32098800;18.06423600;2024-02-14T06:27:30;-1.50;99.90
7598;DHT22;3840;59.32098800;18.06423600;2024-02-14T06:29:56;-1.50;99.90
7598;DHT22;3840;59.32098800;18.06423600;2024-02-14T06:32:22;-1.20;99.90
7598;DHT22;3840;59.32098800;18.06423600;2024-02-14T06:34:48;-1.30;99.90
7598;DHT22;3840;59.32098800;18.06423600;2024-02-14T06:37:13;-1.20;99.90
7598;DHT22;3840;59.32098800;18.06423600;2024-02-14T06:39:39;-1.30;99.90
7598;DHT22;3840;59.32098800;18.06423600;2024-02-14T06:42:05;-1.30;99.90
7598;DHT22;3840;59.32098800;18.06423600;2024-02-14T06:44:30;-1.20;99.90
7598;DHT22;3840;59.32098800;18.06423600;2024-02-14T06:46:56;-1.20;99.90
7598;DHT22;3840;59.32098800;18.06423600;2024-02-14T06:49:22;-1.20;99.90
7598;DHT22;3840;59.32098800;18.06423600;2024-02-14T06:51:48;-1.30;99.90
7598;DHT22;3840;59.32098800;18.06423600;2024-02-14T06:54:14;-1.30;99.90
7598;DHT22;3840;59.32098800;18.06423600;2024-02-14T06:56:39;-1.20;99.90
7598;DHT22;3840;59.32098800;18.06423600;2024-02-14T06:59:05;-1.10;99.90
7598;DHT22;3840;59.32098800;18.06423600;2024-02-14T07:01:31;-1.00;99.90
7598;DHT22;3840;59.32098800;18.06423600;2024-02-14T07:03:58;-1.00;99.90
7598;DHT22;3840;59.32098800;18.06423600;2024-02-14T07:06:23;-1.00;99.90
7598;DHT22;3840;59.32098800;18.06423600;2024-02-14T07:08:49;-1.00;99.90
7598;DHT22;3840;59.32098800;18.06423600;2024-02-14T07:11:16;-0.90;99.90
7598;DHT22;3840;59.32098800;18.06423600;2024-02-14T07:13:42;-0.60;99.90
7598;DHT22;3840;59.32098800;18.06423600;2024-02-14T07:16:07;-0.70;99.90
7598;DHT22;3840;59.32098800;18.06423600;2024-02-14T07:18:36;-0.70;99.90
7598;DHT22;3840;59.32098800;18.06423600;2024-02-14T07:21:02;0.00;99.90
7598;DHT22;3840;59.32098800;18.06423600;2024-02-14T07:23:29;-0.80;99.90
7598;DHT22;3840;59.32098800;18.06423600;2024-02-14T07:25:55;-0.70;99.90
7598;DHT22;3840;59.32098800;18.06423600;2024-02-14T07:28:20;-0.60;99.90
7598;DHT22;3840;59.32098800;18.06423600;2024-02-14T07:30:46;-0.60;99.90
7598;DHT22;3840;59.32098800;18.06423600;2024-02-14T07:33:12;-0.60;99.90
7598;DHT22;3840;59.32098800;18.06423600;2024-02-14T07:35:38;-0.50;99.90
7598;DHT22;3840;59.32098800;18.06423600;2024-02-14T07:38:04;-0.40;99.90
7598;DHT22;3840;59.32098800;18.06423600;2024-02-14T07:40:29;-0.50;99.90
7598;DHT22;3840;59.32098800;18.06423600;2024-02-14T07:42:59;-0.40;99.90
7598;DHT22;3840;59.32098800;18.06423600;2024-02-14T07:45:25;-0.40;99.90
7598;DHT22;3840;59.32098800;18.06423600;2024-02-14T07:47:50;-0.40;99.90
7598;DHT22;3840;59.32098800;18.06423600;2024-02-14T07:50:16;-0.30;99.90
7598;DHT22;3840;59.32098800;18.06423600;2024-02-14T07:52:43;-0.30;99.90
7598;DHT22;3840;59.32098800;18.06423600;2024-02-14T07:55:09;-0.30;99.90
7598;DHT22;3840;59.32098800;18.06423600;2024-02-14T07:57:39;1.10;99.90
7598;DHT22;3840;59.32098800;18.06423600;2024-02-14T08:00:08;-0.20;99.90
7598;DHT22;3840;59.32098800;18.06423600;2024-02-14T08:02:35;-0.20;99.90
7598;DHT22;3840;59.32098800;18.06423600;2024-02-14T08:05:01;0.70;99.90
7598;DHT22;3840;59.32098800;18.06423600;2024-02-14T08:07:27;-0.30;99.90
7598;DHT22;3840;59.32098800;18.06423600;2024-02-14T08:09:54;-0.30;99.90
7598;DHT22;3840;59.32098800;18.06423600;2024-02-14T08:12:20;-0.30;99.90
7598;DHT22;3840;59.32098800;18.06423600;2024-02-14T08:14:47;0.70;99.90
7598;DHT22;3840;59.32098800;18.06423600;2024-02-14T08:17:13;-0.20;99.90
7598;DHT22;3840;59.32098800;18.06423600;2024-02-14T08:19:39;-0.10;99.90
7598;DHT22;3840;59.32098800;18.06423600;2024-02-14T08:22:05;-0.10;99.90
7598;DHT22;3840;59.32098800;18.06423600;2024-02-14T08:24:31;-0.10;99.90
7598;DHT22;3840;59.32098800;18.06423600;2024-02-14T08:26:57;-0.10;99.90
7598;DHT22;3840;59.32098800;18.06423600;2024-02-14T08:29:23;-0.10;99.90
7598;DHT22;3840;59.32098800;18.06423600;2024-02-14T08:31:49;0.40;99.90
7598;DHT22;3840;59.32098800;18.06423600;2024-02-14T08:34:15;0.00;99.90
7598;DHT22;3840;59.32098800;18.06423600;2024-02-14T08:36:42;1.20;99.90
7598;DHT22;3840;59.32098800;18.06423600;2024-02-14T08:39:08;0.10;99.90
7598;DHT22;3840;59.32098800;18.06423600;2024-02-14T08:41:36;0.00;99.90
7598;DHT22;3840;59.32098800;18.06423600;2024-02-14T08:44:02;0.10;99.90
7598;DHT22;3840;59.32098800;18.06423600;2024-02-14T08:46:29;0.20;99.90
7598;DHT22;3840;59.32098800;18.06423600;2024-02-14T08:48:55;0.60;99.90
7598;DHT22;3840;59.32098800;18.06423600;2024-02-14T08:51:21;0.20;99.90
7598;DHT22;3840;59.32098800;18.06423600;2024-02-14T08:53:48;0.20;99.90
7598;DHT22;3840;59.32098800;18.06423600;2024-02-14T08:56:13;0.30;99.90
7598;DHT22;3840;59.32098800;18.06423600;2024-02-14T08:58:39;0.30;99.90
7598;DHT22;3840;59.32098800;18.06423600;2024-02-14T09:01:05;0.50;99.90
7598;DHT22;3840;59.32098800;18.06423600;2024-02-14T09:03:32;0.40;99.90
7598;DHT22;3840;59.32098800;18.06423600;2024-02-14T09:05:58;0.70;99.90
7598;DHT22;3840;59.32098800;18.06423600;2024-02-14T09:08:24;0.60;99.90
7598;DHT22;3840;59.32098800;18.06423600;2024-02-14T09:10:52;0.50;99.90
7598;DHT22;3840;59.32098800;18.06423600;2024-02-14T09:13:18;0.50;99.90
7598;DHT22;3840;59.32098800;18.06423600;2024-02-14T09:15:44;0.60;99.90
7598;DHT22;3840;59.32098800;18.06423600;2024-02-14T09:18:09;0.70;99.90
7598;DHT22;3840;59.32098800;18.06423600;2024-02-14T09:20:35;0.70;99.90
7598;DHT22;3840;59.32098800;18.06423600;2024-02-14T09:23:03;0.80;99.90
7598;DHT22;3840;59.32098800;18.06423600;2024-02-14T09:25:29;0.70;99.90
7598;DHT22;3840;59.32098800;18.06423600;2024-02-14T09:27:55;0.90;99.90
7598;DHT22;3840;59.32098800;18.06423600;2024-02-14T09:30:20;1.10;99.90
7598;DHT22;3840;59.32098800;18.06423600;2024-02-14T09:32:47;1.20;99.90
7598;DHT22;3840;59.32098800;18.06423600;2024-02-14T09:35:13;1.20;99.90
7598;DHT22;3840;59.32098800;18.06423600;2024-02-14T09:37:39;1.20;99.90
7598;DHT22;3840;59.32098800;18.06423600;2024-02-14T09:40:06;1.20;99.90
7598;DHT22;3840;59.32098800;18.06423600;2024-02-14T09:42:38;1.20;99.90
7598;DHT22;3840;59.32098800;18.06423600;2024-02-14T09:45:09;1.40;99.90
7598;DHT22;3840;59.32098800;18.06423600;2024-02-14T09:47:35;1.50;99.90
7598;DHT22;3840;59.32098800;18.06423600;2024-02-14T09:50:02;1.40;99.90
7598;DHT22;3840;59.32098800;18.06423600;2024-02-14T09:52:32;1.40;99.90
7598;DHT22;3840;59.32098800;18.06423600;2024-02-14T09:54:58;1.50;99.90
7598;DHT22;3840;59.32098800;18.06423600;2024-02-14T09:57:25;1.40;99.90
7598;DHT22;3840;59.32098800;18.06423600;2024-02-14T09:59:52;1.40;99.90
7598;DHT22;3840;59.32098800;18.06423600;2024-02-14T10:02:19;1.30;99.90
7598;DHT22;3840;59.32098800;18.06423600;2024-02-14T10:04:45;1.70;99.90
7598;DHT22;3840;59.32098800;18.06423600;2024-02-14T10:07:11;1.30;99.90
7598;DHT22;3840;59.32098800;18.06423600;2024-02-14T10:09:45;1.30;99.90
7598;DHT22;3840;59.32098800;18.06423600;2024-02-14T10:12:11;1.30;99.90
7598;DHT22;3840;59.32098800;18.06423600;2024-02-14T10:14:37;1.30;99.90
7598;DHT22;3840;59.32098800;18.06423600;2024-02-14T10:17:06;1.60;99.90
7598;DHT22;3840;59.32098800;18.06423600;2024-02-14T10:19:33;1.50;99.90
7598;DHT22;3840;59.32098800;18.06423600;2024-02-14T10:22:00;2.30;99.90
7598;DHT22;3840;59.32098800;18.06423600;2024-02-14T10:24:29;1.70;99.90
7598;DHT22;3840;59.32098800;18.06423600;2024-02-14T10:26:56;1.80;99.90
7598;DHT22;3840;59.32098800;18.06423600;2024-02-14T10:29:23;2.00;99.90
7598;DHT22;3840;59.32098800;18.06423600;2024-02-14T10:31:50;1.70;99.90
7598;DHT22;3840;59.32098800;18.06423600;2024-02-14T10:34:16;1.70;99.90
7598;DHT22;3840;59.32098800;18.06423600;2024-02-14T10:36:45;1.60;99.90
7598;DHT22;3840;59.32098800;18.06423600;2024-02-14T10:39:11;1.70;99.90
7598;DHT22;3840;59.32098800;18.06423600;2024-02-14T10:41:37;1.90;99.90
7598;DHT22;3840;59.32098800;18.06423600;2024-02-14T10:44:03;2.00;99.90
7598;DHT22;3840;59.32098800;18.06423600;2024-02-14T10:46:32;2.10;99.90
7598;DHT22;3840;59.32098800;18.06423600;2024-02-14T10:49:08;2.10;99.90
7598;DHT22;3840;59.32098800;18.06423600;2024-02-14T10:51:38;2.10;99.90
7598;DHT22;3840;59.32098800;18.06423600;2024-02-14T10:54:11;2.10;99.90
7598;DHT22;3840;59.32098800;18.06423600;2024-02-14T10:56:42;2.20;99.90
7598;DHT22;3840;59.32098800;18.06423600;2024-02-14T10:59:14;2.20;99.90
7598;DHT22;3840;59.32098800;18.06423600;2024-02-14T11:01:41;2.10;99.90
7598;DHT22;3840;59.32098800;18.06423600;2024-02-14T11:04:07;2.10;99.90
7598;DHT22;3840;59.32098800;18.06423600;2024-02-14T11:06:54;2.00;99.90
7598;DHT22;3840;59.32098800;18.06423600;2024-02-14T11:09:22;2.00;99.90
7598;DHT22;3840;59.32098800;18.06423600;2024-02-14T11:12:00;2.00;99.90
7598;DHT22;3840;59.32098800;18.06423600;2024-02-14T11:14:31;2.20;99.90
7598;DHT22;3840;59.32098800;18.06423600;2024-02-14T11:16:57;2.20;99.90
7598;DHT22;3840;59.32098800;18.06423600;2024-02-14T11:19:31;2.10;99.90
7598;DHT22;3840;59.32098800;18.06423600;2024-02-14T11:22:18;2.20;99.90
7598;DHT22;3840;59.32098800;18.06423600;2024-02-14T11:24:47;2.20;99.90
7598;DHT22;3840;59.32098800;18.06423600;2024-02-14T11:27:13;2.40;99.90
7598;DHT22;3840;59.32098800;18.06423600;2024-02-14T11:29:40;2.50;99.90
7598;DHT22;3840;59.32098800;18.06423600;2024-02-14T11:32:07;2.80;99.90
7598;DHT22;3840;59.32098800;18.06423600;2024-02-14T11:34:36;3.40;99.90
7598;DHT22;3840;59.32098800;18.06423600;2024-02-14T11:37:02;3.60;99.90
7598;DHT22;3840;59.32098800;18.06423600;2024-02-14T11:39:28;3.50;99.90
7598;DHT22;3840;59.32098800;18.06423600;2024-02-14T11:41:56;3.30;99.90
7598;DHT22;3840;59.32098800;18.06423600;2024-02-14T11:44:23;3.10;99.90
7598;DHT22;3840;59.32098800;18.06423600;2024-02-14T11:46:49;3.10;99.90
7598;DHT22;3840;59.32098800;18.06423600;2024-02-14T11:49:15;3.10;99.90
7598;DHT22;3840;59.32098800;18.06423600;2024-02-14T11:51:42;3.10;99.90
7598;DHT22;3840;59.32098800;18.06423600;2024-02-14T11:54:09;3.00;99.90
7598;DHT22;3840;59.32098800;18.06423600;2024-02-14T11:56:38;3.10;99.90
7598;DHT22;3840;59.32098800;18.06423600;2024-02-14T11:59:05;3.20;99.90
7598;DHT22;3840;59.32098800;18.06423600;2024-02-14T12:01:35;3.20;99.90
7598;DHT22;3840;59.32098800;18.06423600;2024-02-14T12:04:06;3.30;99.90
7598;DHT22;3840;59.32098800;18.06423600;2024-02-14T12:06:34;3.20;99.90
7598;DHT22;3840;59.32098800;18.06423600;2024-02-14T12:09:04;3.20;99.90
7598;DHT22;3840;59.32098800;18.06423600;2024-02-14T12:11:34;3.20;99.90
7598;DHT22;3840;59.32098800;18.06423600;2024-02-14T12:14:06;3.20;99.90
7598;DHT22;3840;59.32098800;18.06423600;2024-02-14T12:16:34;3.20;99.90
7598;DHT22;3840;59.32098800;18.06423600;2024-02-14T12:19:09;3.30;99.90
7598;DHT22;3840;59.32098800;18.06423600;2024-02-14T12:21:39;3.00;99.90
7598;DHT22;3840;59.32098800;18.06423600;2024-02-14T12:24:08;3.00;99.90
7598;DHT22;3840;59.32098800;18.06423600;2024-02-14T12:26:38;3.10;99.90
7598;DHT22;3840;59.32098800;18.06423600;2024-02-14T12:29:04;3.30;99.90
7598;DHT22;3840;59.32098800;18.06423600;2024-02-14T12:31:31;3.00;99.90
7598;DHT22;3840;59.32098800;18.06423600;2024-02-14T12:34:01;3.00;99.90
7598;DHT22;3840;59.32098800;18.06423600;2024-02-14T12:36:34;3.00;99.90
7598;DHT22;3840;59.32098800;18.06423600;2024-02-14T12:39:01;3.00;99.90
7598;DHT22;3840;59.32098800;18.06423600;2024-02-14T12:41:30;3.10;99.90
7598;DHT22;3840;59.32098800;18.06423600;2024-02-14T12:43:57;3.20;99.90
7598;DHT22;3840;59.32098800;18.06423600;2024-02-14T12:46:23;3.20;99.90
7598;DHT22;3840;59.32098800;18.06423600;2024-02-14T12:48:49;3.20;99.90
7598;DHT22;3840;59.32098800;18.06423600;2024-02-14T12:51:17;3.40;99.90
7598;DHT22;3840;59.32098800;18.06423600;2024-02-14T12:53:43;3.40;99.90
7598;DHT22;3840;59.32098800;18.06423600;2024-02-14T12:56:09;3.10;99.90
7598;DHT22;3840;59.32098800;18.06423600;2024-02-14T12:58:34;3.70;99.90
7598;DHT22;3840;59.32098800;18.06423600;2024-02-14T13:01:02;3.60;99.90
7598;DHT22;3840;59.32098800;18.06423600;2024-02-14T13:03:31;3.60;99.90
7598;DHT22;3840;59.32098800;18.06423600;2024-02-14T13:05:58;3.50;99.90
7598;DHT22;3840;59.32098800;18.06423600;2024-02-14T13:08:23;3.40;99.90
7598;DHT22;3840;59.32098800;18.06423600;2024-02-14T13:10:49;3.70;99.90
7598;DHT22;3840;59.32098800;18.06423600;2024-02-14T13:13:15;3.30;99.90
7598;DHT22;3840;59.32098800;18.06423600;2024-02-14T13:15:41;3.40;99.90
7598;DHT22;3840;59.32098800;18.06423600;2024-02-14T13:18:08;3.40;99.90
7598;DHT22;3840;59.32098800;18.06423600;2024-02-14T13:20:35;3.60;99.90
7598;DHT22;3840;59.32098800;18.06423600;2024-02-14T13:23:01;3.50;99.90
7598;DHT22;3840;59.32098800;18.06423600;2024-02-14T13:25:28;3.30;99.90
7598;DHT22;3840;59.32098800;18.06423600;2024-02-14T13:27:53;2.20;99.90
7598;DHT22;3840;59.32098800;18.06423600;2024-02-14T13:30:20;3.10;99.90
7598;DHT22;3840;59.32098800;18.06423600;2024-02-14T13:32:48;3.10;99.90
7598;DHT22;3840;59.32098800;18.06423600;2024-02-14T13:35:14;3.20;99.90
7598;DHT22;3840;59.32098800;18.06423600;2024-02-14T13:37:39;3.10;99.90